sensor_id;sensor_type;location;lat;lon;timestamp;P1;durP1;ratioP1;P2;durP2;ratioP2
8230;SDS011;4156;50.908;6.974;2023-03-03T00:01:37;21.23;;;14.57;;
8230;SDS011;4156;50.908;6.974;2023-03-03T00:04:02;20.33;;;12.93;;
8230;SDS011;4156;50.908;6.974;2023-03-03T00:06:28;21.77;;;13.13;;
8230;SDS011;4156;50.908;6.974;2023-03-03T00:08:54;22.03;;;14.83;;
8230;SDS011;4156;50.908;6.974;2023-03-03T00:11:20;22.97;;;15.23;;
8230;SDS011;4156;50.908;6.974;2023-03-03T00:13:49;23.00;;;13.93;;
8230;SDS011;4156;50.908;6.974;2023-03-03T00:16:38;21.17;;;14.00;;
8230;SDS011;4156;50.908;6.974;2023-03-03T00:19:14;22.03;;;13.77;;
8230;SDS011;4156;50.908;6.974;2023-03-03T00:21:43;24.20;;;14.47;;
8230;SDS011;4156;50.908;6.974;2023-03-03T00:27:07;22.70;;;13.93;;
8230;SDS011;4156;50.908;6.974;2023-03-03T00:29:37;23.43;;;14.83;;
8230;SDS011;4156;50.908;6.974;2023-03-03T00:34:40;26.30;;;14.83;;
8230;SDS011;4156;50.908;6.974;2023-03-03T00:37:22;24.10;;;14.60;;
8230;SDS011;4156;50.908;6.974;2023-03-03T00:39:51;24.73;;;15.37;;
8230;SDS011;4156;50.908;6.974;2023-03-03T00:42:17;23.50;;;15.53;;
8230;SDS011;4156;50.908;6.974;2023-03-03T00:52:36;23.33;;;14.70;;
8230;SDS011;4156;50.908;6.974;2023-03-03T00:55:09;27.10;;;14.90;;
8230;SDS011;4156;50.908;6.974;2023-03-03T00:57:36;25.13;;;14.33;;
8230;SDS011;4156;50.908;6.974;2023-03-03T01:00:02;25.97;;;16.23;;
8230;SDS011;4156;50.908;6.974;2023-03-03T01:02:28;27.10;;;15.67;;
8230;SDS011;4156;50.908;6.974;2023-03-03T01:04:54;30.93;;;15.93;;
8230;SDS011;4156;50.908;6.974;2023-03-03T01:07:20;26.30;;;15.57;;
8230;SDS011;4156;50.908;6.974;2023-03-03T01:09:46;22.90;;;14.07;;
8230;SDS011;4156;50.908;6.974;2023-03-03T01:12:12;25.20;;;16.13;;
8230;SDS011;4156;50.908;6.974;2023-03-03T01:14:38;23.50;;;15.37;;
8230;SDS011;4156;50.908;6.974;2023-03-03T01:17:03;25.83;;;16.30;;
8230;SDS011;4156;50.908;6.974;2023-03-03T01:19:29;26.57;;;16.40;;
8230;SDS011;4156;50.908;6.974;2023-03-03T01:21:55;25.53;;;15.73;;
8230;SDS011;4156;50.908;6.974;2023-03-03T01:24:21;26.10;;;16.43;;
8230;SDS011;4156;50.908;6.974;2023-03-03T01:26:47;27.43;;;17.77;;
8230;SDS011;4156;50.908;6.974;2023-03-03T01:29:12;26.47;;;16.13;;
8230;SDS011;4156;50.908;6.974;2023-03-03T01:31:38;25.77;;;17.27;;
8230;SDS011;4156;50.908;6.974;2023-03-03T01:34:04;26.83;;;17.17;;
8230;SDS011;4156;50.908;6.974;2023-03-03T01:36:31;24.47;;;17.23;;
8230;SDS011;4156;50.908;6.974;2023-03-03T01:38:57;27.50;;;16.30;;
8230;SDS011;4156;50.908;6.974;2023-03-03T01:41:25;30.13;;;17.37;;
8230;SDS011;4156;50.908;6.974;2023-03-03T01:43:52;25.90;;;15.50;;
8230;SDS011;4156;50.908;6.974;2023-03-03T01:46:21;30.73;;;17.63;;
8230;SDS011;4156;50.908;6.974;2023-03-03T01:49:24;29.30;;;17.57;;
8230;SDS011;4156;50.908;6.974;2023-03-03T01:51:54;30.40;;;18.87;;
8230;SDS011;4156;50.908;6.974;2023-03-03T01:54:44;28.60;;;17.10;;
8230;SDS011;4156;50.908;6.974;2023-03-03T01:57:11;28.47;;;17.30;;
8230;SDS011;4156;50.908;6.974;2023-03-03T01:59:41;30.67;;;18.40;;
8230;SDS011;4156;50.908;6.974;2023-03-03T02:02:11;29.80;;;18.57;;
8230;SDS011;4156;50.908;6.974;2023-03-03T02:04:37;30.27;;;18.50;;
8230;SDS011;4156;50.908;6.974;2023-03-03T02:07:07;28.80;;;17.83;;
8230;SDS011;4156;50.908;6.974;2023-03-03T02:09:38;29.83;;;18.77;;
8230;SDS011;4156;50.908;6.974;2023-03-03T02:12:31;29.27;;;19.00;;
8230;SDS011;4156;50.908;6.974;2023-03-03T02:15:00;30.23;;;18.83;;
8230;SDS011;4156;50.908;6.974;2023-03-03T02:17:25;31.67;;;18.87;;
8230;SDS011;4156;50.908;6.974;2023-03-03T02:19:54;27.50;;;17.07;;
8230;SDS011;4156;50.908;6.974;2023-03-03T02:22:33;32.53;;;19.10;;
8230;SDS011;4156;50.908;6.974;2023-03-03T02:25:05;32.20;;;18.53;;
8230;SDS011;4156;50.908;6.974;2023-03-03T02:27:35;32.50;;;18.53;;
8230;SDS011;4156;50.908;6.974;2023-03-03T02:30:08;30.60;;;19.03;;
8230;SDS011;4156;50.908;6.974;2023-03-03T02:32:42;35.83;;;20.47;;
8230;SDS011;4156;50.908;6.974;2023-03-03T02:37:58;31.57;;;18.20;;
8230;SDS011;4156;50.908;6.974;2023-03-03T02:40:56;28.67;;;17.67;;
8230;SDS011;4156;50.908;6.974;2023-03-03T02:43:28;30.93;;;18.63;;
8230;SDS011;4156;50.908;6.974;2023-03-03T02:46:01;32.57;;;18.87;;
8230;SDS011;4156;50.908;6.974;2023-03-03T02:48:27;32.77;;;20.43;;
8230;SDS011;4156;50.908;6.974;2023-03-03T02:50:52;29.93;;;18.23;;
8230;SDS011;4156;50.908;6.974;2023-03-03T02:53:18;31.60;;;19.87;;
8230;SDS011;4156;50.908;6.974;2023-03-03T02:55:43;31.73;;;18.27;;
8230;SDS011;4156;50.908;6.974;2023-03-03T02:58:09;32.50;;;18.97;;
8230;SDS011;4156;50.908;6.974;2023-03-03T03:00:34;29.90;;;18.00;;
8230;SDS011;4156;50.908;6.974;2023-03-03T03:03:00;29.77;;;18.83;;
8230;SDS011;4156;50.908;6.974;2023-03-03T03:05:26;28.20;;;17.53;;
8230;SDS011;4156;50.908;6.974;2023-03-03T03:07:51;30.50;;;17.77;;
8230;SDS011;4156;50.908;6.974;2023-03-03T03:10:17;29.30;;;17.40;;
8230;SDS011;4156;50.908;6.974;2023-03-03T03:12:42;29.97;;;18.13;;
8230;SDS011;4156;50.908;6.974;2023-03-03T03:15:08;25.90;;;16.93;;
8230;SDS011;4156;50.908;6.974;2023-03-03T03:17:35;31.67;;;18.13;;
8230;SDS011;4156;50.908;6.974;2023-03-03T03:20:01;28.97;;;18.50;;
8230;SDS011;4156;50.908;6.974;2023-03-03T03:22:27;28.93;;;18.67;;
8230;SDS011;4156;50.908;6.974;2023-03-03T03:24:52;30.33;;;18.17;;
8230;SDS011;4156;50.908;6.974;2023-03-03T03:27:18;30.20;;;17.73;;
8230;SDS011;4156;50.908;6.974;2023-03-03T03:29:43;27.13;;;15.80;;
8230;SDS011;4156;50.908;6.974;2023-03-03T03:32:09;29.33;;;18.17;;
8230;SDS011;4156;50.908;6.974;2023-03-03T03:34:36;30.83;;;17.03;;
8230;SDS011;4156;50.908;6.974;2023-03-03T03:37:02;32.83;;;18.27;;
8230;SDS011;4156;50.908;6.974;2023-03-03T03:39:27;27.70;;;17.37;;
8230;SDS011;4156;50.908;6.974;2023-03-03T03:41:53;31.97;;;18.17;;
8230;SDS011;4156;50.908;6.974;2023-03-03T03:44:18;30.53;;;18.27;;
8230;SDS011;4156;50.908;6.974;2023-03-03T03:46:44;29.97;;;16.80;;
8230;SDS011;4156;50.908;6.974;2023-03-03T03:49:09;30.90;;;16.73;;
8230;SDS011;4156;50.908;6.974;2023-03-03T03:51:35;34.10;;;18.43;;
8230;SDS011;4156;50.908;6.974;2023-03-03T03:54:05;29.23;;;17.97;;
8230;SDS011;4156;50.908;6.974;2023-03-03T03:56:30;32.93;;;18.50;;
8230;SDS011;4156;50.908;6.974;2023-03-03T03:58:56;27.10;;;16.07;;
8230;SDS011;4156;50.908;6.974;2023-03-03T04:01:21;28.60;;;16.83;;
8230;SDS011;4156;50.908;6.974;2023-03-03T04:03:47;32.23;;;18.57;;
8230;SDS011;4156;50.908;6.974;2023-03-03T04:06:13;31.50;;;18.37;;
8230;SDS011;4156;50.908;6.974;2023-03-03T04:08:38;29.50;;;17.50;;
8230;SDS011;4156;50.908;6.974;2023-03-03T04:11:04;27.20;;;15.73;;
8230;SDS011;4156;50.908;6.974;2023-03-03T04:13:30;27.93;;;16.90;;
8230;SDS011;4156;50.908;6.974;2023-03-03T04:15:58;29.90;;;17.63;;
8230;SDS011;4156;50.908;6.974;2023-03-03T04:18:25;30.00;;;17.30;;
8230;SDS011;4156;50.908;6.974;2023-03-03T04:20:50;29.63;;;18.63;;
8230;SDS011;4156;50.908;6.974;2023-03-03T04:23:18;29.20;;;17.97;;
8230;SDS011;4156;50.908;6.974;2023-03-03T04:25:47;27.53;;;16.97;;
8230;SDS011;4156;50.908;6.974;2023-03-03T04:28:14;29.33;;;16.93;;
8230;SDS011;4156;50.908;6.974;2023-03-03T04:30:40;34.13;;;18.83;;
8230;SDS011;4156;50.908;6.974;2023-03-03T04:33:05;31.47;;;18.57;;
8230;SDS011;4156;50.908;6.974;2023-03-03T04:35:31;33.67;;;17.83;;
8230;SDS011;4156;50.908;6.974;2023-03-03T04:37:57;30.57;;;18.10;;
8230;SDS011;4156;50.908;6.974;2023-03-03T04:40:22;25.20;;;15.27;;
8230;SDS011;4156;50.908;6.974;2023-03-03T04:42:48;30.47;;;18.13;;
8230;SDS011;4156;50.908;6.974;2023-03-03T04:45:13;28.33;;;17.17;;
8230;SDS011;4156;50.908;6.974;2023-03-03T04:47:39;29.90;;;16.53;;
8230;SDS011;4156;50.908;6.974;2023-03-03T04:50:05;28.17;;;15.97;;
8230;SDS011;4156;50.908;6.974;2023-03-03T04:52:31;26.10;;;16.43;;
8230;SDS011;4156;50.908;6.974;2023-03-03T04:54:57;26.23;;;15.37;;
8230;SDS011;4156;50.908;6.974;2023-03-03T04:57:23;28.97;;;16.33;;
8230;SDS011;4156;50.908;6.974;2023-03-03T04:59:48;30.43;;;16.87;;
8230;SDS011;4156;50.908;6.974;2023-03-03T05:02:14;31.20;;;17.47;;
8230;SDS011;4156;50.908;6.974;2023-03-03T05:04:39;26.33;;;15.77;;
8230;SDS011;4156;50.908;6.974;2023-03-03T05:07:05;28.77;;;15.80;;
8230;SDS011;4156;50.908;6.974;2023-03-03T05:09:30;26.33;;;16.67;;
8230;SDS011;4156;50.908;6.974;2023-03-03T05:11:56;27.17;;;16.20;;
8230;SDS011;4156;50.908;6.974;2023-03-03T05:14:21;24.23;;;13.60;;
8230;SDS011;4156;50.908;6.974;2023-03-03T05:16:47;28.20;;;16.10;;
8230;SDS011;4156;50.908;6.974;2023-03-03T05:19:12;25.00;;;15.27;;
8230;SDS011;4156;50.908;6.974;2023-03-03T05:21:38;25.60;;;15.53;;
8230;SDS011;4156;50.908;6.974;2023-03-03T05:24:06;26.33;;;14.77;;
8230;SDS011;4156;50.908;6.974;2023-03-03T05:26:35;28.63;;;15.87;;
8230;SDS011;4156;50.908;6.974;2023-03-03T05:29:01;24.57;;;14.43;;
8230;SDS011;4156;50.908;6.974;2023-03-03T05:31:26;23.83;;;13.57;;
8230;SDS011;4156;50.908;6.974;2023-03-03T05:33:53;24.30;;;13.90;;
8230;SDS011;4156;50.908;6.974;2023-03-03T05:36:18;24.87;;;15.20;;
8230;SDS011;4156;50.908;6.974;2023-03-03T05:38:44;27.77;;;15.63;;
8230;SDS011;4156;50.908;6.974;2023-03-03T05:41:10;25.40;;;14.20;;
8230;SDS011;4156;50.908;6.974;2023-03-03T05:43:35;24.37;;;13.03;;
8230;SDS011;4156;50.908;6.974;2023-03-03T05:46:01;22.00;;;12.13;;
8230;SDS011;4156;50.908;6.974;2023-03-03T05:48:27;24.00;;;14.87;;
8230;SDS011;4156;50.908;6.974;2023-03-03T05:50:52;22.73;;;13.37;;
8230;SDS011;4156;50.908;6.974;2023-03-03T05:53:18;23.33;;;14.80;;
8230;SDS011;4156;50.908;6.974;2023-03-03T05:55:44;24.93;;;15.10;;
8230;SDS011;4156;50.908;6.974;2023-03-03T05:58:09;22.60;;;12.97;;
8230;SDS011;4156;50.908;6.974;2023-03-03T06:00:36;23.30;;;13.47;;
8230;SDS011;4156;50.908;6.974;2023-03-03T06:03:02;23.67;;;13.83;;
8230;SDS011;4156;50.908;6.974;2023-03-03T06:05:28;23.07;;;14.27;;
8230;SDS011;4156;50.908;6.974;2023-03-03T06:07:53;25.63;;;15.00;;
8230;SDS011;4156;50.908;6.974;2023-03-03T06:10:19;25.47;;;13.80;;
8230;SDS011;4156;50.908;6.974;2023-03-03T06:12:44;26.23;;;12.30;;
8230;SDS011;4156;50.908;6.974;2023-03-03T06:15:10;25.57;;;14.97;;
8230;SDS011;4156;50.908;6.974;2023-03-03T06:17:36;26.47;;;15.73;;
8230;SDS011;4156;50.908;6.974;2023-03-03T06:20:01;23.00;;;13.30;;
8230;SDS011;4156;50.908;6.974;2023-03-03T06:22:28;26.10;;;13.70;;
8230;SDS011;4156;50.908;6.974;2023-03-03T06:24:53;26.83;;;16.53;;
8230;SDS011;4156;50.908;6.974;2023-03-03T06:27:19;25.20;;;13.80;;
8230;SDS011;4156;50.908;6.974;2023-03-03T06:29:45;25.60;;;15.30;;
8230;SDS011;4156;50.908;6.974;2023-03-03T06:32:10;26.33;;;14.67;;
8230;SDS011;4156;50.908;6.974;2023-03-03T06:34:36;27.00;;;15.33;;
8230;SDS011;4156;50.908;6.974;2023-03-03T06:37:01;27.40;;;16.70;;
8230;SDS011;4156;50.908;6.974;2023-03-03T06:39:27;33.33;;;17.53;;
8230;SDS011;4156;50.908;6.974;2023-03-03T06:41:53;29.80;;;15.37;;
8230;SDS011;4156;50.908;6.974;2023-03-03T06:44:19;29.47;;;16.53;;
8230;SDS011;4156;50.908;6.974;2023-03-03T06:46:44;27.20;;;15.97;;
8230;SDS011;4156;50.908;6.974;2023-03-03T06:49:10;25.90;;;15.10;;
8230;SDS011;4156;50.908;6.974;2023-03-03T06:51:36;28.53;;;15.60;;
8230;SDS011;4156;50.908;6.974;2023-03-03T06:54:11;29.60;;;15.63;;
8230;SDS011;4156;50.908;6.974;2023-03-03T06:56:38;28.37;;;16.23;;
8230;SDS011;4156;50.908;6.974;2023-03-03T06:59:08;27.73;;;15.87;;
8230;SDS011;4156;50.908;6.974;2023-03-03T07:01:39;26.70;;;14.23;;
8230;SDS011;4156;50.908;6.974;2023-03-03T07:04:23;26.97;;;16.13;;
8230;SDS011;4156;50.908;6.974;2023-03-03T07:06:55;26.60;;;15.40;;
8230;SDS011;4156;50.908;6.974;2023-03-03T07:09:24;32.43;;;17.73;;
8230;SDS011;4156;50.908;6.974;2023-03-03T07:11:52;31.40;;;17.13;;
8230;SDS011;4156;50.908;6.974;2023-03-03T07:14:20;30.33;;;18.13;;
8230;SDS011;4156;50.908;6.974;2023-03-03T07:16:49;26.77;;;15.33;;
8230;SDS011;4156;50.908;6.974;2023-03-03T07:19:20;27.20;;;16.00;;
8230;SDS011;4156;50.908;6.974;2023-03-03T07:21:55;25.70;;;14.50;;
8230;SDS011;4156;50.908;6.974;2023-03-03T07:24:25;25.03;;;15.17;;
8230;SDS011;4156;50.908;6.974;2023-03-03T07:27:01;27.03;;;15.83;;
8230;SDS011;4156;50.908;6.974;2023-03-03T07:30:12;28.00;;;15.63;;
8230;SDS011;4156;50.908;6.974;2023-03-03T07:32:44;26.03;;;15.47;;
8230;SDS011;4156;50.908;6.974;2023-03-03T07:38:22;19.87;;;11.77;;
8230;SDS011;4156;50.908;6.974;2023-03-03T07:40:55;21.43;;;12.90;;
8230;SDS011;4156;50.908;6.974;2023-03-03T07:49:12;24.23;;;13.73;;
8230;SDS011;4156;50.908;6.974;2023-03-03T07:51:46;25.37;;;14.93;;
8230;SDS011;4156;50.908;6.974;2023-03-03T07:57:21;22.17;;;12.87;;
8230;SDS011;4156;50.908;6.974;2023-03-03T08:02:28;22.60;;;12.80;;
8230;SDS011;4156;50.908;6.974;2023-03-03T08:04:58;21.90;;;12.80;;
8230;SDS011;4156;50.908;6.974;2023-03-03T08:07:24;24.17;;;14.10;;
8230;SDS011;4156;50.908;6.974;2023-03-03T08:09:50;25.83;;;14.67;;
8230;SDS011;4156;50.908;6.974;2023-03-03T08:14:55;30.33;;;16.07;;
8230;SDS011;4156;50.908;6.974;2023-03-03T08:17:33;28.60;;;16.47;;
8230;SDS011;4156;50.908;6.974;2023-03-03T08:20:00;30.10;;;17.00;;
8230;SDS011;4156;50.908;6.974;2023-03-03T08:23:01;24.40;;;14.77;;
8230;SDS011;4156;50.908;6.974;2023-03-03T08:25:28;27.20;;;14.67;;
8230;SDS011;4156;50.908;6.974;2023-03-03T08:27:53;23.63;;;14.07;;
8230;SDS011;4156;50.908;6.974;2023-03-03T08:30:19;21.53;;;13.13;;
8230;SDS011;4156;50.908;6.974;2023-03-03T08:32:44;28.03;;;15.43;;
8230;SDS011;4156;50.908;6.974;2023-03-03T08:35:10;28.33;;;15.03;;
8230;SDS011;4156;50.908;6.974;2023-03-03T08:37:35;22.43;;;12.20;;
8230;SDS011;4156;50.908;6.974;2023-03-03T08:40:01;18.73;;;12.33;;
8230;SDS011;4156;50.908;6.974;2023-03-03T08:42:26;18.60;;;11.57;;
8230;SDS011;4156;50.908;6.974;2023-03-03T08:44:54;20.67;;;12.27;;
8230;SDS011;4156;50.908;6.974;2023-03-03T08:47:19;19.70;;;11.37;;
8230;SDS011;4156;50.908;6.974;2023-03-03T08:49:45;21.57;;;13.07;;
8230;SDS011;4156;50.908;6.974;2023-03-03T08:52:10;24.33;;;12.97;;
8230;SDS011;4156;50.908;6.974;2023-03-03T08:54:36;23.80;;;12.57;;
8230;SDS011;4156;50.908;6.974;2023-03-03T08:57:02;24.50;;;13.57;;
8230;SDS011;4156;50.908;6.974;2023-03-03T08:59:27;23.57;;;13.20;;
8230;SDS011;4156;50.908;6.974;2023-03-03T09:01:53;24.37;;;14.57;;
8230;SDS011;4156;50.908;6.974;2023-03-03T09:04:19;26.37;;;14.33;;
8230;SDS011;4156;50.908;6.974;2023-03-03T09:06:44;27.43;;;15.17;;
8230;SDS011;4156;50.908;6.974;2023-03-03T09:09:10;28.73;;;15.90;;
8230;SDS011;4156;50.908;6.974;2023-03-03T09:11:35;27.43;;;15.03;;
8230;SDS011;4156;50.908;6.974;2023-03-03T09:14:05;22.90;;;14.60;;
8230;SDS011;4156;50.908;6.974;2023-03-03T09:16:36;25.03;;;14.63;;
8230;SDS011;4156;50.908;6.974;2023-03-03T09:21:51;24.37;;;13.67;;
8230;SDS011;4156;50.908;6.974;2023-03-03T09:24:28;23.83;;;14.40;;
8230;SDS011;4156;50.908;6.974;2023-03-03T09:26:55;22.17;;;12.80;;
8230;SDS011;4156;50.908;6.974;2023-03-03T09:31:56;24.63;;;14.40;;
8230;SDS011;4156;50.908;6.974;2023-03-03T09:37:01;27.00;;;15.13;;
8230;SDS011;4156;50.908;6.974;2023-03-03T09:39:47;21.07;;;12.60;;
8230;SDS011;4156;50.908;6.974;2023-03-03T09:42:20;20.90;;;12.77;;
8230;SDS011;4156;50.908;6.974;2023-03-03T09:45:07;22.00;;;12.67;;
8230;SDS011;4156;50.908;6.974;2023-03-03T09:50:43;20.43;;;12.63;;
8230;SDS011;4156;50.908;6.974;2023-03-03T09:59:00;29.47;;;15.80;;
8230;SDS011;4156;50.908;6.974;2023-03-03T10:01:49;27.23;;;15.57;;
8230;SDS011;4156;50.908;6.974;2023-03-03T10:13:30;26.07;;;15.80;;
8230;SDS011;4156;50.908;6.974;2023-03-03T10:19:12;26.97;;;14.90;;
8230;SDS011;4156;50.908;6.974;2023-03-03T10:24:30;26.17;;;14.20;;
8230;SDS011;4156;50.908;6.974;2023-03-03T10:27:11;26.07;;;14.90;;
8230;SDS011;4156;50.908;6.974;2023-03-03T10:52:51;28.07;;;16.07;;
8230;SDS011;4156;50.908;6.974;2023-03-03T10:58:26;29.27;;;15.37;;
8230;SDS011;4156;50.908;6.974;2023-03-03T11:04:05;30.50;;;17.07;;
8230;SDS011;4156;50.908;6.974;2023-03-03T11:06:40;31.87;;;16.97;;
8230;SDS011;4156;50.908;6.974;2023-03-03T11:11:58;32.53;;;17.03;;
8230;SDS011;4156;50.908;6.974;2023-03-03T11:17:56;25.70;;;15.07;;
8230;SDS011;4156;50.908;6.974;2023-03-03T11:20:37;31.83;;;15.37;;
8230;SDS011;4156;50.908;6.974;2023-03-03T11:29:14;30.80;;;16.77;;
8230;SDS011;4156;50.908;6.974;2023-03-03T11:34:29;27.87;;;16.03;;
8230;SDS011;4156;50.908;6.974;2023-03-03T11:37:00;34.37;;;17.20;;
8230;SDS011;4156;50.908;6.974;2023-03-03T11:39:32;31.67;;;16.77;;
8230;SDS011;4156;50.908;6.974;2023-03-03T11:44:44;33.40;;;16.90;;
8230;SDS011;4156;50.908;6.974;2023-03-03T11:47:21;28.30;;;16.07;;
8230;SDS011;4156;50.908;6.974;2023-03-03T11:52:30;32.17;;;16.47;;
8230;SDS011;4156;50.908;6.974;2023-03-03T11:57:53;33.50;;;16.60;;
8230;SDS011;4156;50.908;6.974;2023-03-03T12:00:40;30.30;;;16.93;;
8230;SDS011;4156;50.908;6.974;2023-03-03T12:03:18;30.17;;;16.40;;
8230;SDS011;4156;50.908;6.974;2023-03-03T12:06:27;29.20;;;16.57;;
8230;SDS011;4156;50.908;6.974;2023-03-03T12:16:32;29.60;;;15.13;;
8230;SDS011;4156;50.908;6.974;2023-03-03T12:19:34;30.33;;;15.70;;
8230;SDS011;4156;50.908;6.974;2023-03-03T12:22:30;34.73;;;17.07;;
8230;SDS011;4156;50.908;6.974;2023-03-03T12:25:17;36.63;;;17.03;;
8230;SDS011;4156;50.908;6.974;2023-03-03T12:35:42;30.60;;;15.93;;
8230;SDS011;4156;50.908;6.974;2023-03-03T12:41:20;31.70;;;17.03;;
8230;SDS011;4156;50.908;6.974;2023-03-03T12:44:34;31.47;;;17.10;;
8230;SDS011;4156;50.908;6.974;2023-03-03T12:46:42;33.63;;;17.50;;
8230;SDS011;4156;50.908;6.974;2023-03-03T12:49:14;30.70;;;16.70;;
8230;SDS011;4156;50.908;6.974;2023-03-03T12:55:30;25.50;;;15.57;;
8230;SDS011;4156;50.908;6.974;2023-03-03T12:57:33;28.47;;;16.67;;
8230;SDS011;4156;50.908;6.974;2023-03-03T13:02:54;32.87;;;16.67;;
8230;SDS011;4156;50.908;6.974;2023-03-03T13:05:32;28.07;;;16.00;;
8230;SDS011;4156;50.908;6.974;2023-03-03T13:11:20;33.83;;;14.73;;
8230;SDS011;4156;50.908;6.974;2023-03-03T13:19:31;26.47;;;15.53;;
8230;SDS011;4156;50.908;6.974;2023-03-03T13:25:23;26.47;;;14.93;;
8230;SDS011;4156;50.908;6.974;2023-03-03T13:30:54;25.60;;;13.97;;
8230;SDS011;4156;50.908;6.974;2023-03-03T13:33:49;23.70;;;12.67;;
8230;SDS011;4156;50.908;6.974;2023-03-03T13:36:19;23.50;;;13.40;;
8230;SDS011;4156;50.908;6.974;2023-03-03T13:38:48;25.10;;;13.23;;
8230;SDS011;4156;50.908;6.974;2023-03-03T13:43:57;25.10;;;13.57;;
8230;SDS011;4156;50.908;6.974;2023-03-03T13:46:39;26.13;;;13.90;;
8230;SDS011;4156;50.908;6.974;2023-03-03T13:49:09;25.27;;;13.40;;
8230;SDS011;4156;50.908;6.974;2023-03-03T13:51:43;20.27;;;11.93;;
8230;SDS011;4156;50.908;6.974;2023-03-03T13:57:39;26.07;;;13.23;;
8230;SDS011;4156;50.908;6.974;2023-03-03T14:03:08;27.40;;;14.70;;
8230;SDS011;4156;50.908;6.974;2023-03-03T14:05:51;27.10;;;13.97;;
8230;SDS011;4156;50.908;6.974;2023-03-03T14:08:29;29.70;;;15.67;;
8230;SDS011;4156;50.908;6.974;2023-03-03T14:11:10;27.00;;;14.03;;
8230;SDS011;4156;50.908;6.974;2023-03-03T14:13:54;33.80;;;16.00;;
8230;SDS011;4156;50.908;6.974;2023-03-03T14:16:39;32.73;;;16.80;;
8230;SDS011;4156;50.908;6.974;2023-03-03T14:19:14;32.70;;;16.03;;
8230;SDS011;4156;50.908;6.974;2023-03-03T14:21:52;35.97;;;17.07;;
8230;SDS011;4156;50.908;6.974;2023-03-03T14:24:21;33.93;;;16.53;;
8230;SDS011;4156;50.908;6.974;2023-03-03T14:26:54;31.90;;;16.10;;
8230;SDS011;4156;50.908;6.974;2023-03-03T14:31:52;34.37;;;16.70;;
8230;SDS011;4156;50.908;6.974;2023-03-03T14:36:47;32.33;;;16.20;;
8230;SDS011;4156;50.908;6.974;2023-03-03T14:39:34;33.93;;;16.97;;
8230;SDS011;4156;50.908;6.974;2023-03-03T14:42:05;28.63;;;14.63;;
8230;SDS011;4156;50.908;6.974;2023-03-03T14:44:53;33.37;;;17.67;;
8230;SDS011;4156;50.908;6.974;2023-03-03T14:47:21;31.13;;;15.60;;
8230;SDS011;4156;50.908;6.974;2023-03-03T14:49:48;36.43;;;17.00;;
8230;SDS011;4156;50.908;6.974;2023-03-03T14:54:41;33.60;;;15.00;;
8230;SDS011;4156;50.908;6.974;2023-03-03T15:00:01;38.00;;;17.53;;
8230;SDS011;4156;50.908;6.974;2023-03-03T15:05:52;34.67;;;16.57;;
8230;SDS011;4156;50.908;6.974;2023-03-03T15:08:30;38.10;;;17.00;;
8230;SDS011;4156;50.908;6.974;2023-03-03T15:11:11;35.20;;;15.97;;
8230;SDS011;4156;50.908;6.974;2023-03-03T15:13:37;39.07;;;18.23;;
8230;SDS011;4156;50.908;6.974;2023-03-03T15:16:07;38.30;;;16.83;;
8230;SDS011;4156;50.908;6.974;2023-03-03T15:19:22;35.40;;;16.90;;
8230;SDS011;4156;50.908;6.974;2023-03-03T15:21:24;38.47;;;17.80;;
8230;SDS011;4156;50.908;6.974;2023-03-03T15:24:02;39.70;;;17.73;;
8230;SDS011;4156;50.908;6.974;2023-03-03T15:26:49;39.53;;;17.00;;
8230;SDS011;4156;50.908;6.974;2023-03-03T15:29:39;37.67;;;17.10;;
8230;SDS011;4156;50.908;6.974;2023-03-03T15:34:51;37.30;;;17.70;;
8230;SDS011;4156;50.908;6.974;2023-03-03T15:37:32;36.10;;;16.67;;
8230;SDS011;4156;50.908;6.974;2023-03-03T15:40:02;35.57;;;16.30;;
8230;SDS011;4156;50.908;6.974;2023-03-03T15:42:48;39.27;;;17.67;;
8230;SDS011;4156;50.908;6.974;2023-03-03T15:46:05;41.13;;;17.97;;
8230;SDS011;4156;50.908;6.974;2023-03-03T16:04:35;32.97;;;14.43;;
8230;SDS011;4156;50.908;6.974;2023-03-03T16:15:25;32.63;;;14.60;;
8230;SDS011;4156;50.908;6.974;2023-03-03T16:18:31;30.93;;;14.30;;
8230;SDS011;4156;50.908;6.974;2023-03-03T16:23:56;31.53;;;13.67;;
8230;SDS011;4156;50.908;6.974;2023-03-03T16:26:42;34.80;;;14.40;;
8230;SDS011;4156;50.908;6.974;2023-03-03T16:31:57;29.00;;;14.07;;
8230;SDS011;4156;50.908;6.974;2023-03-03T16:34:46;46.13;;;14.50;;
8230;SDS011;4156;50.908;6.974;2023-03-03T16:37:31;28.77;;;14.80;;
8230;SDS011;4156;50.908;6.974;2023-03-03T16:40:25;30.57;;;13.63;;
8230;SDS011;4156;50.908;6.974;2023-03-03T16:45:39;31.17;;;14.43;;
8230;SDS011;4156;50.908;6.974;2023-03-03T16:51:13;26.30;;;13.77;;
8230;SDS011;4156;50.908;6.974;2023-03-03T16:53:58;28.00;;;13.77;;
8230;SDS011;4156;50.908;6.974;2023-03-03T16:56:34;26.97;;;12.90;;
8230;SDS011;4156;50.908;6.974;2023-03-03T17:04:29;28.63;;;13.90;;
8230;SDS011;4156;50.908;6.974;2023-03-03T17:07:02;26.70;;;13.23;;
8230;SDS011;4156;50.908;6.974;2023-03-03T17:12:21;32.00;;;13.57;;
8230;SDS011;4156;50.908;6.974;2023-03-03T17:18:13;27.63;;;13.13;;
8230;SDS011;4156;50.908;6.974;2023-03-03T17:20:56;22.83;;;12.67;;
8230;SDS011;4156;50.908;6.974;2023-03-03T17:26:13;29.73;;;13.13;;
8230;SDS011;4156;50.908;6.974;2023-03-03T17:29:16;24.90;;;12.37;;
8230;SDS011;4156;50.908;6.974;2023-03-03T17:32:04;28.97;;;14.03;;
8230;SDS011;4156;50.908;6.974;2023-03-03T17:41:33;33.13;;;14.37;;
8230;SDS011;4156;50.908;6.974;2023-03-03T17:43:38;28.93;;;14.67;;
8230;SDS011;4156;50.908;6.974;2023-03-03T17:46:27;32.57;;;15.93;;
8230;SDS011;4156;50.908;6.974;2023-03-03T17:57:53;39.90;;;19.47;;
8230;SDS011;4156;50.908;6.974;2023-03-03T18:03:32;47.50;;;22.90;;
8230;SDS011;4156;50.908;6.974;2023-03-03T18:11:55;45.40;;;24.33;;
8230;SDS011;4156;50.908;6.974;2023-03-03T18:14:34;45.90;;;23.97;;
8230;SDS011;4156;50.908;6.974;2023-03-03T18:17:49;45.93;;;23.67;;
8230;SDS011;4156;50.908;6.974;2023-03-03T18:20:29;45.27;;;22.90;;
8230;SDS011;4156;50.908;6.974;2023-03-03T18:25:59;44.83;;;24.73;;
8230;SDS011;4156;50.908;6.974;2023-03-03T18:28:47;46.83;;;22.40;;
8230;SDS011;4156;50.908;6.974;2023-03-03T18:31:24;52.43;;;25.23;;
8230;SDS011;4156;50.908;6.974;2023-03-03T18:36:34;47.50;;;24.07;;
8230;SDS011;4156;50.908;6.974;2023-03-03T18:39:03;43.77;;;24.07;;
8230;SDS011;4156;50.908;6.974;2023-03-03T18:41:31;49.73;;;24.43;;
8230;SDS011;4156;50.908;6.974;2023-03-03T18:44:01;41.53;;;22.60;;
8230;SDS011;4156;50.908;6.974;2023-03-03T18:46:51;50.73;;;26.17;;
8230;SDS011;4156;50.908;6.974;2023-03-03T18:49:18;52.87;;;26.67;;
8230;SDS011;4156;50.908;6.974;2023-03-03T18:57:35;57.43;;;26.37;;
8230;SDS011;4156;50.908;6.974;2023-03-03T19:00:15;57.30;;;28.10;;
8230;SDS011;4156;50.908;6.974;2023-03-03T19:02:52;59.80;;;27.50;;
8230;SDS011;4156;50.908;6.974;2023-03-03T19:05:21;61.90;;;29.53;;
8230;SDS011;4156;50.908;6.974;2023-03-03T19:18:03;70.57;;;32.73;;
8230;SDS011;4156;50.908;6.974;2023-03-03T19:21:00;62.43;;;30.87;;
8230;SDS011;4156;50.908;6.974;2023-03-03T19:34:11;81.30;;;35.03;;
8230;SDS011;4156;50.908;6.974;2023-03-03T19:37:18;69.50;;;32.73;;
8230;SDS011;4156;50.908;6.974;2023-03-03T19:40:21;77.63;;;34.47;;
8230;SDS011;4156;50.908;6.974;2023-03-03T19:48:47;71.73;;;32.17;;
8230;SDS011;4156;50.908;6.974;2023-03-03T19:57:03;75.17;;;32.43;;
8230;SDS011;4156;50.908;6.974;2023-03-03T19:59:44;72.20;;;33.43;;
8230;SDS011;4156;50.908;6.974;2023-03-03T20:08:00;75.27;;;34.77;;
8230;SDS011;4156;50.908;6.974;2023-03-03T20:16:37;75.97;;;35.93;;
8230;SDS011;4156;50.908;6.974;2023-03-03T20:19:28;81.83;;;36.20;;
8230;SDS011;4156;50.908;6.974;2023-03-03T20:22:10;80.43;;;35.97;;
8230;SDS011;4156;50.908;6.974;2023-03-03T20:27:22;75.33;;;34.27;;
8230;SDS011;4156;50.908;6.974;2023-03-03T20:30:22;73.93;;;35.13;;
8230;SDS011;4156;50.908;6.974;2023-03-03T20:33:25;80.20;;;36.27;;